createdAt,value
2022-12-06T00:02:30.386Z,20.70
2022-12-06T00:05:04.100Z,24.55
2022-12-06T00:07:39.012Z,19.73
2022-12-06T00:10:11.259Z,22.55
2022-12-06T00:12:42.469Z,22.55
2022-12-06T00:15:15.329Z,23.52
2022-12-06T00:17:46.327Z,24.60
2022-12-06T00:20:19.995Z,26.70
2022-12-06T00:22:50.959Z,31.27
2022-12-06T00:25:21.856Z,28.17
2022-12-06T00:27:56.951Z,27.20
2022-12-06T00:30:29.159Z,26.30
2022-12-06T00:33:00.105Z,33.42
2022-12-06T00:35:35.480Z,31.98
2022-12-06T00:38:06.940Z,30.92
2022-12-06T00:40:42.546Z,30.58
2022-12-06T00:43:14.053Z,33.65
2022-12-06T00:45:48.794Z,30.95
2022-12-06T00:48:19.755Z,35.00
2022-12-06T00:50:53.669Z,36.40
2022-12-06T00:53:25.561Z,32.70
2022-12-06T00:55:57.758Z,35.63
2022-12-06T00:58:28.954Z,38.45
2022-12-06T01:01:09.360Z,30.92
2022-12-06T01:03:40.487Z,34.17
2022-12-06T01:06:16.555Z,30.77
2022-12-06T01:08:47.596Z,40.50
2022-12-06T01:11:26.605Z,45.47
2022-12-06T01:13:57.354Z,37.75
2022-12-06T01:16:31.393Z,38.97
2022-12-06T01:19:06.841Z,46.33
2022-12-06T01:21:40.139Z,53.08
2022-12-06T01:24:11.145Z,37.33
2022-12-06T01:26:41.978Z,45.28
2022-12-06T01:29:13.202Z,50.28
2022-12-06T01:31:45.129Z,42.58
2022-12-06T01:34:19.309Z,40.22
2022-12-06T01:36:53.248Z,49.95
2022-12-06T01:39:26.165Z,43.13
2022-12-06T01:41:58.193Z,47.65
2022-12-06T01:44:47.874Z,50.95
2022-12-06T01:47:22.350Z,35.15
2022-12-06T01:49:58.048Z,43.77
2022-12-06T01:52:35.144Z,40.47
2022-12-06T01:55:10.620Z,41.10
2022-12-06T01:57:42.527Z,38.77
2022-12-06T02:00:14.547Z,41.90
2022-12-06T02:02:47.275Z,36.60
2022-12-06T02:05:19.634Z,37.40
2022-12-06T02:07:54.756Z,33.67
2022-12-06T02:10:25.893Z,32.38
2022-12-06T02:13:01.623Z,32.55
2022-12-06T02:15:43.195Z,36.00
2022-12-06T02:18:22.055Z,29.33
2022-12-06T02:20:59.261Z,39.67
2022-12-06T02:24:17.780Z,33.90
2022-12-06T02:26:51.812Z,30.25
2022-12-06T02:29:50.797Z,35.57
2022-12-06T02:32:28.225Z,27.42
2022-12-06T02:35:04.123Z,29.90
2022-12-06T02:37:40.123Z,29.13
2022-12-06T02:40:16.898Z,33.90
2022-12-06T02:42:52.762Z,33.00
2022-12-06T02:45:28.043Z,33.08
2022-12-06T02:48:05.065Z,30.13
2022-12-06T02:50:45.911Z,35.53
2022-12-06T02:53:22.850Z,34.45
2022-12-06T02:55:55.198Z,33.85
2022-12-06T02:58:26.287Z,31.83
2022-12-06T03:01:00.949Z,26.67
2022-12-06T03:03:59.032Z,31.65
2022-12-06T03:06:53.612Z,28.33
2022-12-06T03:09:39.617Z,31.17
2022-12-06T03:12:18.846Z,35.33
2022-12-06T03:14:58.075Z,27.02
2022-12-06T03:17:38.735Z,30.30
2022-12-06T03:20:18.612Z,36.47
2022-12-06T03:22:53.205Z,29.05
2022-12-06T03:25:24.562Z,30.35
2022-12-06T03:27:57.664Z,34.28
2022-12-06T03:30:33.632Z,36.90
2022-12-06T03:33:07.015Z,37.03
2022-12-06T03:35:41.204Z,32.13
2022-12-06T03:38:14.697Z,32.07
2022-12-06T03:40:50.864Z,32.47
2022-12-06T03:43:22.616Z,38.93
2022-12-06T03:46:00.013Z,32.20
2022-12-06T03:48:35.051Z,35.60
2022-12-06T03:51:11.184Z,26.87
2022-12-06T03:53:50.530Z,27.13
2022-12-06T03:56:21.374Z,30.52
2022-12-06T03:58:52.511Z,28.55
2022-12-06T04:01:24.777Z,29.53
2022-12-06T04:03:55.652Z,34.83
2022-12-06T04:06:29.688Z,31.80
2022-12-06T04:09:20.475Z,33.22
2022-12-06T04:11:51.262Z,32.93
2022-12-06T04:14:23.281Z,33.07
2022-12-06T04:17:18.097Z,29.43
2022-12-06T04:19:52.279Z,28.40
2022-12-06T04:22:38.890Z,30.60
2022-12-06T04:25:10.418Z,41.43
2022-12-06T04:28:06.409Z,33.67
2022-12-06T04:30:49.596Z,43.95
2022-12-06T04:33:32.963Z,37.55
2022-12-06T04:36:16.227Z,41.50
2022-12-06T04:38:48.099Z,40.40
2022-12-06T04:41:39.958Z,42.07
2022-12-06T04:44:11.332Z,41.13
2022-12-06T04:46:43.504Z,47.90
2022-12-06T04:49:14.405Z,40.00
2022-12-06T04:51:45.249Z,46.92
2022-12-06T04:54:17.772Z,49.88
2022-12-06T04:56:49.249Z,46.22
2022-12-06T04:59:23.537Z,49.33
2022-12-06T05:01:56.748Z,47.23
2022-12-06T05:04:27.646Z,63.00
2022-12-06T05:07:01.257Z,50.25
2022-12-06T05:09:32.146Z,46.20
2022-12-06T05:12:03.241Z,60.88
2022-12-06T05:14:40.009Z,65.93
2022-12-06T05:17:11.005Z,41.67
2022-12-06T05:19:41.839Z,54.97
2022-12-06T05:22:15.426Z,47.80
2022-12-06T05:24:46.172Z,46.80
2022-12-06T05:27:17.087Z,52.97
2022-12-06T05:29:52.803Z,45.67
2022-12-06T05:32:23.625Z,44.50
2022-12-06T05:34:54.339Z,46.20
2022-12-06T05:37:25.378Z,38.73
2022-12-06T05:39:56.148Z,47.60
2022-12-06T05:42:26.963Z,50.93
2022-12-06T05:45:00.326Z,42.23
2022-12-06T05:47:31.142Z,43.47
2022-12-06T05:50:02.150Z,49.13
2022-12-06T05:52:33.401Z,66.30
2022-12-06T05:55:04.229Z,45.33
2022-12-06T05:57:35.271Z,55.47
2022-12-06T06:00:11.133Z,43.53
2022-12-06T06:02:43.823Z,41.67
2022-12-06T06:05:14.909Z,41.60
2022-12-06T06:07:45.816Z,45.28
2022-12-06T06:10:18.627Z,55.17
2022-12-06T06:12:49.475Z,48.10
2022-12-06T06:15:22.866Z,48.33
2022-12-06T06:17:58.027Z,61.50
2022-12-06T06:20:28.975Z,52.57
2022-12-06T06:22:59.728Z,51.57
2022-12-06T06:25:30.584Z,59.40
2022-12-06T06:28:01.364Z,57.23
2022-12-06T06:30:35.160Z,61.73
2022-12-06T06:33:08.310Z,46.20
2022-12-06T06:35:40.391Z,51.40
2022-12-06T06:38:14.046Z,45.70
2022-12-06T06:40:44.835Z,59.10
2022-12-06T06:43:21.595Z,53.70
2022-12-06T06:46:00.196Z,50.67
2022-12-06T06:48:35.982Z,83.23
2022-12-06T06:51:09.211Z,47.37
2022-12-06T06:53:40.816Z,54.67
2022-12-06T06:56:12.470Z,59.03
2022-12-06T06:58:46.383Z,51.37
2022-12-06T07:01:22.107Z,46.77
2022-12-06T07:03:54.158Z,53.77
2022-12-06T07:06:25.142Z,62.80
2022-12-06T07:08:55.907Z,58.30
2022-12-06T07:11:26.733Z,61.75
2022-12-06T07:13:57.624Z,49.47
2022-12-06T07:16:31.461Z,51.97
2022-12-06T07:19:07.579Z,45.23
2022-12-06T07:21:39.836Z,45.50
2022-12-06T07:24:10.714Z,51.53
2022-12-06T07:26:41.513Z,51.93
2022-12-06T07:29:12.250Z,57.87
2022-12-06T07:31:45.574Z,57.77
2022-12-06T07:34:16.815Z,51.80
2022-12-06T07:36:47.589Z,56.27
2022-12-06T07:39:18.421Z,56.53
2022-12-06T07:42:01.670Z,54.90
2022-12-06T07:44:45.178Z,53.33
2022-12-06T07:47:18.596Z,59.07
2022-12-06T07:49:49.524Z,47.90
2022-12-06T07:52:21.070Z,51.17
2022-12-06T07:54:52.076Z,54.03
2022-12-06T07:57:23.124Z,66.03
2022-12-06T07:59:54.092Z,55.07
2022-12-06T08:02:29.409Z,51.90
2022-12-06T08:05:00.489Z,55.70
2022-12-06T08:07:32.535Z,52.67
2022-12-06T08:10:03.841Z,60.03
2022-12-06T08:12:37.772Z,59.67
2022-12-06T08:15:13.097Z,63.63
2022-12-06T08:17:46.812Z,72.70
2022-12-06T08:20:17.744Z,52.80
2022-12-06T08:22:48.516Z,74.33
2022-12-06T08:25:19.928Z,70.90
2022-12-06T08:27:50.858Z,61.37
2022-12-06T08:30:21.814Z,69.17
2022-12-06T08:32:56.634Z,70.17
2022-12-06T08:35:27.902Z,54.57
2022-12-06T08:37:58.772Z,59.63
2022-12-06T08:40:29.822Z,63.93
2022-12-06T08:43:00.674Z,52.30
2022-12-06T08:45:33.859Z,49.97
2022-12-06T08:48:07.506Z,52.23
2022-12-06T08:50:38.730Z,54.87
2022-12-06T08:53:10.087Z,51.57
2022-12-06T08:55:41.552Z,52.83
2022-12-06T08:58:12.356Z,49.30
2022-12-06T09:00:44.378Z,58.97
2022-12-06T09:03:18.399Z,39.43
2022-12-06T09:05:51.611Z,48.00
2022-12-06T09:08:22.529Z,53.53
2022-12-06T09:10:53.398Z,50.00
2022-12-06T09:13:25.919Z,47.60
2022-12-06T09:15:56.973Z,45.50
2022-12-06T09:18:31.373Z,41.93
2022-12-06T09:21:02.390Z,42.83
2022-12-06T09:23:33.406Z,42.67
2022-12-06T09:26:04.743Z,46.80
2022-12-06T09:28:41.833Z,39.13
2022-12-06T09:31:13.283Z,41.70
2022-12-06T09:33:47.003Z,40.30
2022-12-06T09:36:21.643Z,41.27
2022-12-06T09:38:57.324Z,37.73
2022-12-06T09:42:06.864Z,36.53
2022-12-06T09:45:03.671Z,37.77
2022-12-06T09:47:45.105Z,40.37
2022-12-06T09:50:25.725Z,45.60
2022-12-06T09:53:10.164Z,51.47
2022-12-06T09:55:57.282Z,41.00
2022-12-06T09:58:40.098Z,34.30
2022-12-06T10:01:21.201Z,32.07
2022-12-06T10:04:01.738Z,31.50
2022-12-06T10:06:43.324Z,30.73
2022-12-06T10:09:35.049Z,27.13
2022-12-06T10:12:19.236Z,28.83
2022-12-06T10:15:05.942Z,27.27
2022-12-06T10:17:52.296Z,26.40
2022-12-06T10:20:32.919Z,27.23
2022-12-06T10:23:16.053Z,23.70
2022-12-06T10:25:55.831Z,28.10
2022-12-06T10:28:44.728Z,21.90
2022-12-06T10:31:25.503Z,25.27
2022-12-06T10:33:59.562Z,23.73
2022-12-06T10:36:42.875Z,26.97
2022-12-06T10:39:22.905Z,24.80
2022-12-06T10:41:59.844Z,28.23
2022-12-06T10:44:35.156Z,24.10
2022-12-06T10:47:08.812Z,20.57
2022-12-06T10:49:49.287Z,26.10
2022-12-06T10:52:38.734Z,27.43
2022-12-06T10:55:27.469Z,20.87
2022-12-06T10:58:06.692Z,19.90
2022-12-06T11:00:40.922Z,21.57
2022-12-06T11:03:21.191Z,21.37
2022-12-06T11:05:57.217Z,19.50
2022-12-06T11:08:32.930Z,18.20
2022-12-06T11:11:08.509Z,17.13
2022-12-06T11:13:46.277Z,21.17
2022-12-06T11:16:22.946Z,17.60
2022-12-06T11:18:55.827Z,22.10
2022-12-06T11:21:35.558Z,20.93
2022-12-06T11:24:16.063Z,20.67
2022-12-06T11:26:56.345Z,17.60
2022-12-06T11:29:27.671Z,18.60
2022-12-06T11:32:01.418Z,15.10
2022-12-06T11:34:36.183Z,19.80
2022-12-06T11:37:08.762Z,17.60
2022-12-06T11:39:39.630Z,16.03
2022-12-06T11:42:17.673Z,14.80
2022-12-06T11:44:56.530Z,17.07
2022-12-06T11:47:27.750Z,16.07
2022-12-06T11:50:04.243Z,12.17
2022-12-06T11:52:46.032Z,14.67
2022-12-06T11:55:22.434Z,15.00
2022-12-06T11:58:01.910Z,18.57
2022-12-06T12:00:35.773Z,22.73
2022-12-06T12:03:07.239Z,16.97
2022-12-06T12:05:39.480Z,14.33
2022-12-06T12:08:20.187Z,17.80
2022-12-06T12:11:02.460Z,14.77
2022-12-06T12:13:49.270Z,15.67
2022-12-06T12:16:26.220Z,15.30
2022-12-06T12:19:03.136Z,14.27
2022-12-06T12:21:41.323Z,18.93
2022-12-06T12:27:50.428Z,14.60
2022-12-06T12:30:34.515Z,14.83
2022-12-06T12:33:23.354Z,15.80
2022-12-06T12:36:11.207Z,18.23
2022-12-06T12:38:46.154Z,18.20
2022-12-06T12:41:29.966Z,17.40
2022-12-06T12:44:37.037Z,18.03
2022-12-06T12:47:22.021Z,17.90
2022-12-06T12:50:07.107Z,16.70
2022-12-06T12:52:41.795Z,18.67
2022-12-06T12:55:21.278Z,15.90
2022-12-06T12:57:54.263Z,12.30
2022-12-06T13:00:28.281Z,14.40
2022-12-06T13:03:18.147Z,11.40
2022-12-06T13:06:01.551Z,14.87
2022-12-06T13:08:37.354Z,13.40
2022-12-06T13:11:11.155Z,12.67
2022-12-06T13:13:46.304Z,12.83
2022-12-06T13:16:20.929Z,13.83
2022-12-06T13:18:58.300Z,12.40
2022-12-06T13:21:35.563Z,11.37
2022-12-06T13:24:14.715Z,13.00
2022-12-06T13:26:49.755Z,14.10
2022-12-06T13:29:28.387Z,11.80
2022-12-06T13:32:04.594Z,11.53
2022-12-06T13:34:42.083Z,11.27
2022-12-06T13:37:37.258Z,12.50
2022-12-06T13:40:29.751Z,12.23
2022-12-06T13:43:04.568Z,10.60
2022-12-06T13:45:48.452Z,11.20
2022-12-06T13:48:41.380Z,9.93
2022-12-06T13:51:15.343Z,11.03
2022-12-06T13:54:20.780Z,9.20
2022-12-06T13:56:51.562Z,7.77
2022-12-06T13:59:44.331Z,6.23
2022-12-06T14:02:54.378Z,6.00
2022-12-06T14:08:34.665Z,3.90
2022-12-06T14:11:15.082Z,5.83
2022-12-06T14:13:52.234Z,4.60
2022-12-06T14:16:37.200Z,6.40
2022-12-06T14:19:20.224Z,5.20
2022-12-06T14:21:56.803Z,5.00
2022-12-06T14:24:33.878Z,6.93
2022-12-06T14:27:16.452Z,8.20
2022-12-06T14:30:02.418Z,6.77
2022-12-06T14:32:37.831Z,6.47
2022-12-06T14:35:14.961Z,6.20
2022-12-06T14:37:49.826Z,6.60
2022-12-06T14:40:45.944Z,5.40
2022-12-06T14:43:18.363Z,5.67
2022-12-06T14:45:50.209Z,7.57
2022-12-06T14:48:25.106Z,5.83
2022-12-06T14:51:01.426Z,8.73
2022-12-06T14:53:34.457Z,7.43
2022-12-06T14:56:07.028Z,8.53
2022-12-06T14:58:43.554Z,9.03
2022-12-06T15:01:20.926Z,15.40
2022-12-06T15:04:03.847Z,8.20
2022-12-06T15:06:38.786Z,14.37
2022-12-06T15:09:19.889Z,9.90
2022-12-06T15:12:03.899Z,11.93
2022-12-06T15:14:49.572Z,9.20
2022-12-06T15:17:24.819Z,10.60
2022-12-06T15:19:58.445Z,11.50
2022-12-06T15:22:31.005Z,11.60
2022-12-06T15:25:03.817Z,14.90
2022-12-06T15:27:34.770Z,18.83
2022-12-06T15:30:05.615Z,18.40
2022-12-06T15:32:36.646Z,19.97
2022-12-06T15:35:20.057Z,16.50
2022-12-06T15:37:51.333Z,20.83
2022-12-06T15:40:22.257Z,36.90
2022-12-06T15:42:56.570Z,43.83
2022-12-06T15:45:32.135Z,24.50
2022-12-06T15:48:05.656Z,24.73
2022-12-06T15:50:39.086Z,22.73
2022-12-06T15:53:15.361Z,15.20
2022-12-06T15:55:46.654Z,18.80
2022-12-06T15:58:17.690Z,15.30
2022-12-06T16:00:48.845Z,14.90
2022-12-06T16:03:19.830Z,12.83
2022-12-06T16:05:55.859Z,17.77
2022-12-06T16:08:26.997Z,14.90
2022-12-06T16:11:13.186Z,11.63
2022-12-06T16:13:46.486Z,14.20
2022-12-06T16:16:20.294Z,13.53
2022-12-06T16:18:52.770Z,14.27
2022-12-06T16:21:29.044Z,13.00
2022-12-06T16:24:16.744Z,16.27
2022-12-06T16:26:48.156Z,10.77
2022-12-06T16:29:20.966Z,13.50
2022-12-06T16:31:53.192Z,14.33
2022-12-06T16:34:25.069Z,18.37
2022-12-06T16:37:01.428Z,18.60
2022-12-06T16:39:36.777Z,17.83
2022-12-06T16:42:08.380Z,15.77
2022-12-06T16:44:51.159Z,13.67
2022-12-06T16:49:51.758Z,14.00
2022-12-06T16:52:32.367Z,15.73
2022-12-06T16:55:03.415Z,13.30
2022-12-06T16:57:34.451Z,21.57
2022-12-06T17:00:06.318Z,33.40
2022-12-06T17:02:37.796Z,17.90
2022-12-06T17:05:09.982Z,33.23
2022-12-06T17:07:44.290Z,21.60
2022-12-06T17:10:19.183Z,19.50
2022-12-06T17:12:51.099Z,19.03
2022-12-06T17:15:25.270Z,16.60
2022-12-06T17:17:56.048Z,18.07
2022-12-06T17:20:29.976Z,14.47
2022-12-06T17:23:03.379Z,14.97
2022-12-06T17:25:34.643Z,15.20
2022-12-06T17:28:05.382Z,16.13
2022-12-06T17:30:36.137Z,18.60
2022-12-06T17:33:06.991Z,16.97
2022-12-06T17:35:38.486Z,17.70
2022-12-06T17:38:12.229Z,15.03
2022-12-06T17:40:44.407Z,13.13
2022-12-06T17:43:12.536Z,14.60
2022-12-06T17:45:44.974Z,14.53
2022-12-06T17:48:21.726Z,12.47
2022-12-06T17:50:52.448Z,14.70
2022-12-06T17:53:28.829Z,12.83
2022-12-06T17:56:00.803Z,13.03
2022-12-06T17:58:31.611Z,12.57
2022-12-06T18:01:02.483Z,14.53
2022-12-06T18:03:33.463Z,12.03
2022-12-06T18:06:10.283Z,10.90
2022-12-06T18:08:44.031Z,14.63
2022-12-06T18:11:14.812Z,12.60
2022-12-06T18:13:48.041Z,15.00
2022-12-06T18:16:21.723Z,12.17
2022-12-06T18:18:55.718Z,13.73
2022-12-06T18:21:28.923Z,13.80
2022-12-06T18:24:20.843Z,14.00
2022-12-06T18:26:53.049Z,13.83
2022-12-06T18:29:26.129Z,12.60
2022-12-06T18:31:57.011Z,11.90
2022-12-06T18:34:27.937Z,12.93
2022-12-06T18:37:00.288Z,12.60
2022-12-06T18:39:34.644Z,16.83
2022-12-06T18:42:08.344Z,14.60
2022-12-06T18:44:39.109Z,12.10
2022-12-06T18:47:09.887Z,15.07
2022-12-06T18:49:41.272Z,11.63
2022-12-06T18:52:13.487Z,14.37
2022-12-06T18:54:48.038Z,14.20
2022-12-06T18:57:19.555Z,14.40
2022-12-06T18:59:51.207Z,16.20
2022-12-06T19:02:21.995Z,14.90
2022-12-06T19:04:54.162Z,12.00
2022-12-06T19:07:27.975Z,11.70
2022-12-06T19:10:01.861Z,14.63
2022-12-06T19:12:32.790Z,12.90
2022-12-06T19:15:06.617Z,12.27
2022-12-06T19:17:37.631Z,15.70
2022-12-06T19:20:10.004Z,14.43
2022-12-06T19:22:40.705Z,12.00
2022-12-06T19:25:14.944Z,10.93
2022-12-06T19:27:45.666Z,13.50
2022-12-06T19:30:19.436Z,12.23
2022-12-06T19:32:50.286Z,10.47
2022-12-06T19:35:21.056Z,12.80
2022-12-06T19:37:52.879Z,11.30
2022-12-06T19:40:27.681Z,13.20
2022-12-06T19:43:10.865Z,13.17
2022-12-06T19:45:42.774Z,13.33
2022-12-06T19:48:14.592Z,13.33
2022-12-06T19:50:47.199Z,12.90
2022-12-06T19:53:17.925Z,12.90
2022-12-06T19:55:53.774Z,14.57
2022-12-06T19:58:24.566Z,13.90
2022-12-06T20:00:55.840Z,10.67
2022-12-06T20:03:29.866Z,15.00
2022-12-06T20:06:05.514Z,13.50
2022-12-06T20:08:37.688Z,15.63
2022-12-06T20:11:33.681Z,15.43
2022-12-06T20:14:06.102Z,19.77
2022-12-06T20:16:37.887Z,16.40
2022-12-06T20:19:09.822Z,19.10
2022-12-06T20:21:41.512Z,14.20
2022-12-06T20:24:13.241Z,12.60
2022-12-06T20:26:46.607Z,13.70
2022-12-06T20:29:19.579Z,15.00
2022-12-06T20:31:52.691Z,14.50
2022-12-06T20:34:23.464Z,12.80
2022-12-06T20:36:54.492Z,16.77
2022-12-06T20:39:26.644Z,17.13
2022-12-06T20:42:01.048Z,16.30
2022-12-06T20:44:32.170Z,16.23
2022-12-06T20:47:04.360Z,15.07
2022-12-06T20:49:35.178Z,16.00
2022-12-06T20:52:06.894Z,18.23
2022-12-06T20:54:38.076Z,20.10
2022-12-06T20:57:11.572Z,18.30
2022-12-06T20:59:42.550Z,18.27
2022-12-06T21:02:15.996Z,24.50
2022-12-06T21:04:46.755Z,19.80
2022-12-06T21:07:21.516Z,20.13
2022-12-06T21:09:52.350Z,21.63
2022-12-06T21:12:25.984Z,21.70
2022-12-06T21:14:59.456Z,21.10
2022-12-06T21:17:30.318Z,25.33
2022-12-06T21:20:01.688Z,24.30
2022-12-06T21:22:32.566Z,26.57
2022-12-06T21:25:07.646Z,23.23
2022-12-06T21:27:41.742Z,24.90
2022-12-06T21:30:13.573Z,27.47
2022-12-06T21:32:44.639Z,30.37
2022-12-06T21:35:15.373Z,25.00
2022-12-06T21:37:46.154Z,30.87
2022-12-06T21:40:22.430Z,27.23
2022-12-06T21:42:56.130Z,26.20
2022-12-06T21:45:29.423Z,31.57
2022-12-06T21:48:00.181Z,30.30
2022-12-06T21:50:30.970Z,27.50
2022-12-06T21:53:02.539Z,32.30
2022-12-06T21:55:33.514Z,29.03
2022-12-06T21:58:10.354Z,33.73
2022-12-06T22:00:41.077Z,29.07
2022-12-06T22:03:15.257Z,33.20
2022-12-06T22:05:50.254Z,30.97
2022-12-06T22:08:21.190Z,35.17
2022-12-06T22:10:52.671Z,33.93
2022-12-06T22:13:29.305Z,34.97
2022-12-06T22:16:04.140Z,32.37
2022-12-06T22:18:41.011Z,36.57
2022-12-06T22:21:18.772Z,32.97
2022-12-06T22:23:55.612Z,35.13
2022-12-06T22:26:33.449Z,37.43
2022-12-06T22:29:09.815Z,40.60
2022-12-06T22:31:40.694Z,36.23
2022-12-06T22:34:13.250Z,39.13
2022-12-06T22:36:51.497Z,36.27
2022-12-06T22:39:23.336Z,37.23
2022-12-06T22:41:56.463Z,39.60
2022-12-06T22:44:34.059Z,40.67
2022-12-06T22:47:06.537Z,39.10
2022-12-06T22:49:37.368Z,43.77
2022-12-06T22:52:11.039Z,46.40
2022-12-06T22:54:42.041Z,40.73
2022-12-06T22:57:13.020Z,44.57
2022-12-06T22:59:46.378Z,43.20
2022-12-06T23:02:17.239Z,42.80
2022-12-06T23:04:48.105Z,49.40
2022-12-06T23:07:18.855Z,44.30
2022-12-06T23:09:52.410Z,41.80
2022-12-06T23:12:24.251Z,45.73
2022-12-06T23:14:58.595Z,43.60
2022-12-06T23:17:29.510Z,45.43
2022-12-06T23:20:02.188Z,47.10
2022-12-06T23:22:34.979Z,42.33
2022-12-06T23:25:07.539Z,43.40
2022-12-06T23:27:38.474Z,47.20
2022-12-06T23:30:13.393Z,46.83
2022-12-06T23:32:44.124Z,41.80
2022-12-06T23:35:15.283Z,41.57
2022-12-06T23:37:46.027Z,44.57
2022-12-06T23:40:16.922Z,44.30
2022-12-06T23:42:47.664Z,42.93
2022-12-06T23:45:22.033Z,42.73
2022-12-06T23:47:53.042Z,43.03
2022-12-06T23:50:24.012Z,39.73
2022-12-06T23:52:54.850Z,39.00
2022-12-06T23:55:27.236Z,40.20
2022-12-06T23:57:57.959Z,45.83
